sensor_id;sensor_type;location;lat;lon;timestamp;P1;durP1;ratioP1;P2;durP2;ratioP2
20729;SDS011;10526;50.850;12.928;2022-11-20T00:03:45;60.55;;;29.38;;
20729;SDS011;10526;50.850;12.928;2022-11-20T00:08:08;56.28;;;25.65;;
20729;SDS011;10526;50.850;12.928;2022-11-20T00:12:30;61.70;;;28.27;;
20729;SDS011;10526;50.850;12.928;2022-11-20T00:16:52;55.85;;;26.83;;
20729;SDS011;10526;50.850;12.928;2022-11-20T00:21:21;60.67;;;29.98;;
20729;SDS011;10526;50.850;12.928;2022-11-20T00:25:45;65.32;;;30.10;;
20729;SDS011;10526;50.850;12.928;2022-11-20T00:30:07;54.53;;;27.08;;
20729;SDS011;10526;50.850;12.928;2022-11-20T00:34:34;55.15;;;26.15;;
20729;SDS011;10526;50.850;12.928;2022-11-20T00:38:57;53.67;;;25.20;;
20729;SDS011;10526;50.850;12.928;2022-11-20T00:43:20;54.15;;;25.10;;
20729;SDS011;10526;50.850;12.928;2022-11-20T00:47:41;57.72;;;27.33;;
20729;SDS011;10526;50.850;12.928;2022-11-20T00:52:03;51.25;;;25.27;;
20729;SDS011;10526;50.850;12.928;2022-11-20T00:56:25;52.78;;;24.73;;
20729;SDS011;10526;50.850;12.928;2022-11-20T01:00:47;46.40;;;23.88;;
20729;SDS011;10526;50.850;12.928;2022-11-20T01:05:10;53.30;;;25.02;;
20729;SDS011;10526;50.850;12.928;2022-11-20T01:09:32;48.70;;;24.17;;
20729;SDS011;10526;50.850;12.928;2022-11-20T01:13:55;41.10;;;21.70;;
20729;SDS011;10526;50.850;12.928;2022-11-20T01:18:18;46.65;;;22.83;;
20729;SDS011;10526;50.850;12.928;2022-11-20T01:22:40;45.63;;;22.13;;
20729;SDS011;10526;50.850;12.928;2022-11-20T01:27:01;46.70;;;22.00;;
20729;SDS011;10526;50.850;12.928;2022-11-20T01:31:25;43.83;;;22.20;;
20729;SDS011;10526;50.850;12.928;2022-11-20T01:35:53;45.63;;;21.75;;
20729;SDS011;10526;50.850;12.928;2022-11-20T01:40:24;42.85;;;21.83;;
20729;SDS011;10526;50.850;12.928;2022-11-20T01:44:54;47.15;;;21.83;;
20729;SDS011;10526;50.850;12.928;2022-11-20T01:49:20;44.75;;;20.73;;
20729;SDS011;10526;50.850;12.928;2022-11-20T01:53:52;41.42;;;21.42;;
20729;SDS011;10526;50.850;12.928;2022-11-20T01:58:16;46.65;;;21.75;;
20729;SDS011;10526;50.850;12.928;2022-11-20T02:02:46;48.88;;;23.33;;
20729;SDS011;10526;50.850;12.928;2022-11-20T02:07:14;49.45;;;21.35;;
20729;SDS011;10526;50.850;12.928;2022-11-20T02:11:37;43.67;;;21.27;;
20729;SDS011;10526;50.850;12.928;2022-11-20T02:15:59;45.75;;;21.20;;
20729;SDS011;10526;50.850;12.928;2022-11-20T02:20:21;48.87;;;23.00;;
20729;SDS011;10526;50.850;12.928;2022-11-20T02:24:43;45.90;;;20.13;;
20729;SDS011;10526;50.850;12.928;2022-11-20T02:29:06;48.40;;;21.85;;
20729;SDS011;10526;50.850;12.928;2022-11-20T02:33:28;47.30;;;21.73;;
20729;SDS011;10526;50.850;12.928;2022-11-20T02:37:50;48.77;;;21.37;;
20729;SDS011;10526;50.850;12.928;2022-11-20T02:42:16;47.30;;;20.53;;
20729;SDS011;10526;50.850;12.928;2022-11-20T02:46:38;45.65;;;21.98;;
20729;SDS011;10526;50.850;12.928;2022-11-20T02:51:00;44.15;;;20.45;;
20729;SDS011;10526;50.850;12.928;2022-11-20T02:55:22;46.13;;;20.98;;
20729;SDS011;10526;50.850;12.928;2022-11-20T02:59:44;47.30;;;21.03;;
20729;SDS011;10526;50.850;12.928;2022-11-20T03:04:06;42.40;;;21.13;;
20729;SDS011;10526;50.850;12.928;2022-11-20T03:08:28;44.20;;;20.63;;
20729;SDS011;10526;50.850;12.928;2022-11-20T03:12:53;44.10;;;19.90;;
20729;SDS011;10526;50.850;12.928;2022-11-20T03:17:16;45.75;;;19.67;;
20729;SDS011;10526;50.850;12.928;2022-11-20T03:21:38;43.63;;;19.38;;
20729;SDS011;10526;50.850;12.928;2022-11-20T03:26:11;43.97;;;20.10;;
20729;SDS011;10526;50.850;12.928;2022-11-20T03:30:41;43.37;;;20.03;;
20729;SDS011;10526;50.850;12.928;2022-11-20T03:35:03;85.30;;;37.33;;
20729;SDS011;10526;50.850;12.928;2022-11-20T03:39:26;45.22;;;20.85;;
20729;SDS011;10526;50.850;12.928;2022-11-20T03:43:52;43.80;;;19.77;;
20729;SDS011;10526;50.850;12.928;2022-11-20T03:48:22;37.30;;;17.88;;
20729;SDS011;10526;50.850;12.928;2022-11-20T03:52:44;47.47;;;20.67;;
20729;SDS011;10526;50.850;12.928;2022-11-20T03:57:06;39.87;;;19.13;;
20729;SDS011;10526;50.850;12.928;2022-11-20T04:01:32;36.27;;;15.97;;
20729;SDS011;10526;50.850;12.928;2022-11-20T04:06:00;39.50;;;18.53;;
20729;SDS011;10526;50.850;12.928;2022-11-20T04:10:43;40.03;;;18.13;;
20729;SDS011;10526;50.850;12.928;2022-11-20T04:15:05;40.42;;;18.65;;
20729;SDS011;10526;50.850;12.928;2022-11-20T04:19:27;40.40;;;18.17;;
20729;SDS011;10526;50.850;12.928;2022-11-20T04:23:49;37.50;;;15.85;;
20729;SDS011;10526;50.850;12.928;2022-11-20T04:28:13;40.13;;;16.48;;
20729;SDS011;10526;50.850;12.928;2022-11-20T04:32:35;32.73;;;15.67;;
20729;SDS011;10526;50.850;12.928;2022-11-20T04:36:57;34.80;;;16.58;;
20729;SDS011;10526;50.850;12.928;2022-11-20T04:41:20;34.60;;;16.73;;
20729;SDS011;10526;50.850;12.928;2022-11-20T04:45:49;36.47;;;16.00;;
20729;SDS011;10526;50.850;12.928;2022-11-20T04:50:15;34.87;;;16.17;;
20729;SDS011;10526;50.850;12.928;2022-11-20T04:54:37;34.92;;;15.40;;
20729;SDS011;10526;50.850;12.928;2022-11-20T04:59:00;35.53;;;16.13;;
20729;SDS011;10526;50.850;12.928;2022-11-20T05:03:23;31.17;;;15.17;;
20729;SDS011;10526;50.850;12.928;2022-11-20T05:07:45;32.00;;;14.83;;
20729;SDS011;10526;50.850;12.928;2022-11-20T05:12:07;35.70;;;16.67;;
20729;SDS011;10526;50.850;12.928;2022-11-20T05:16:30;35.50;;;15.57;;
20729;SDS011;10526;50.850;12.928;2022-11-20T05:20:55;38.35;;;18.42;;
20729;SDS011;10526;50.850;12.928;2022-11-20T05:25:18;34.17;;;16.37;;
20729;SDS011;10526;50.850;12.928;2022-11-20T05:29:40;33.13;;;14.40;;
20729;SDS011;10526;50.850;12.928;2022-11-20T05:34:02;34.00;;;15.23;;
20729;SDS011;10526;50.850;12.928;2022-11-20T05:38:24;30.67;;;14.45;;
20729;SDS011;10526;50.850;12.928;2022-11-20T05:42:46;37.47;;;17.07;;
20729;SDS011;10526;50.850;12.928;2022-11-20T05:47:08;36.40;;;15.57;;
20729;SDS011;10526;50.850;12.928;2022-11-20T05:51:30;33.33;;;15.65;;
20729;SDS011;10526;50.850;12.928;2022-11-20T05:55:58;31.43;;;14.77;;
20729;SDS011;10526;50.850;12.928;2022-11-20T06:00:21;29.45;;;13.98;;
20729;SDS011;10526;50.850;12.928;2022-11-20T06:04:43;32.53;;;15.43;;
20729;SDS011;10526;50.850;12.928;2022-11-20T06:09:05;31.43;;;14.57;;
20729;SDS011;10526;50.850;12.928;2022-11-20T06:13:27;31.30;;;14.20;;
20729;SDS011;10526;50.850;12.928;2022-11-20T06:17:51;30.07;;;14.20;;
20729;SDS011;10526;50.850;12.928;2022-11-20T06:22:16;31.98;;;14.45;;
20729;SDS011;10526;50.850;12.928;2022-11-20T06:26:38;28.80;;;13.23;;
20729;SDS011;10526;50.850;12.928;2022-11-20T06:31:00;32.93;;;14.10;;
20729;SDS011;10526;50.850;12.928;2022-11-20T06:35:23;29.23;;;13.03;;
20729;SDS011;10526;50.850;12.928;2022-11-20T06:39:45;31.48;;;14.20;;
20729;SDS011;10526;50.850;12.928;2022-11-20T06:44:06;25.73;;;13.18;;
20729;SDS011;10526;50.850;12.928;2022-11-20T06:48:29;30.43;;;14.10;;
20729;SDS011;10526;50.850;12.928;2022-11-20T06:52:51;149.97;;;67.27;;
20729;SDS011;10526;50.850;12.928;2022-11-20T06:57:13;31.57;;;15.13;;
20729;SDS011;10526;50.850;12.928;2022-11-20T07:01:35;29.93;;;13.13;;
20729;SDS011;10526;50.850;12.928;2022-11-20T07:05:57;29.53;;;13.93;;
20729;SDS011;10526;50.850;12.928;2022-11-20T07:10:20;34.03;;;13.65;;
20729;SDS011;10526;50.850;12.928;2022-11-20T07:14:43;33.78;;;13.80;;
20729;SDS011;10526;50.850;12.928;2022-11-20T07:19:05;28.98;;;13.63;;
20729;SDS011;10526;50.850;12.928;2022-11-20T07:23:26;33.95;;;17.52;;
20729;SDS011;10526;50.850;12.928;2022-11-20T07:27:48;34.85;;;18.05;;
20729;SDS011;10526;50.850;12.928;2022-11-20T07:32:10;33.90;;;18.13;;
20729;SDS011;10526;50.850;12.928;2022-11-20T07:36:32;27.40;;;15.52;;
20729;SDS011;10526;50.850;12.928;2022-11-20T07:40:55;23.75;;;12.45;;
20729;SDS011;10526;50.850;12.928;2022-11-20T07:45:18;18.92;;;10.05;;
20729;SDS011;10526;50.850;12.928;2022-11-20T07:49:42;18.00;;;9.07;;
20729;SDS011;10526;50.850;12.928;2022-11-20T07:54:04;16.15;;;8.45;;
20729;SDS011;10526;50.850;12.928;2022-11-20T07:58:26;17.73;;;8.75;;
20729;SDS011;10526;50.850;12.928;2022-11-20T08:02:49;15.30;;;7.53;;
20729;SDS011;10526;50.850;12.928;2022-11-20T08:07:11;17.55;;;7.63;;
20729;SDS011;10526;50.850;12.928;2022-11-20T08:11:33;16.67;;;8.07;;
20729;SDS011;10526;50.850;12.928;2022-11-20T08:16:14;18.67;;;8.73;;
20729;SDS011;10526;50.850;12.928;2022-11-20T08:20:36;20.92;;;9.40;;
20729;SDS011;10526;50.850;12.928;2022-11-20T08:24:58;18.73;;;8.50;;
20729;SDS011;10526;50.850;12.928;2022-11-20T08:29:20;23.00;;;9.90;;
20729;SDS011;10526;50.850;12.928;2022-11-20T08:33:42;23.85;;;10.80;;
20729;SDS011;10526;50.850;12.928;2022-11-20T08:38:05;18.50;;;9.55;;
20729;SDS011;10526;50.850;12.928;2022-11-20T08:42:27;21.60;;;10.35;;
20729;SDS011;10526;50.850;12.928;2022-11-20T08:46:49;20.05;;;9.50;;
20729;SDS011;10526;50.850;12.928;2022-11-20T08:51:11;18.02;;;8.75;;
20729;SDS011;10526;50.850;12.928;2022-11-20T08:55:33;18.45;;;8.85;;
20729;SDS011;10526;50.850;12.928;2022-11-20T08:59:58;18.27;;;8.50;;
20729;SDS011;10526;50.850;12.928;2022-11-20T09:04:27;17.13;;;8.68;;
20729;SDS011;10526;50.850;12.928;2022-11-20T09:08:53;21.05;;;9.57;;
20729;SDS011;10526;50.850;12.928;2022-11-20T09:13:16;18.70;;;9.10;;
20729;SDS011;10526;50.850;12.928;2022-11-20T09:17:38;17.70;;;7.88;;
20729;SDS011;10526;50.850;12.928;2022-11-20T09:22:00;16.33;;;7.72;;
20729;SDS011;10526;50.850;12.928;2022-11-20T09:26:21;18.15;;;8.98;;
20729;SDS011;10526;50.850;12.928;2022-11-20T09:30:43;17.85;;;7.97;;
20729;SDS011;10526;50.850;12.928;2022-11-20T09:35:05;15.75;;;7.35;;
20729;SDS011;10526;50.850;12.928;2022-11-20T09:39:28;16.27;;;7.85;;
20729;SDS011;10526;50.850;12.928;2022-11-20T09:44:18;16.63;;;7.60;;
20729;SDS011;10526;50.850;12.928;2022-11-20T09:58:38;18.75;;;9.88;;
20729;SDS011;10526;50.850;12.928;2022-11-20T10:03:11;20.88;;;9.07;;
20729;SDS011;10526;50.850;12.928;2022-11-20T10:07:41;19.98;;;10.25;;
20729;SDS011;10526;50.850;12.928;2022-11-20T10:31:42;23.83;;;10.98;;
20729;SDS011;10526;50.850;12.928;2022-11-20T10:36:22;22.27;;;11.18;;
20729;SDS011;10526;50.850;12.928;2022-11-20T10:41:01;25.45;;;11.20;;
20729;SDS011;10526;50.850;12.928;2022-11-20T10:45:53;22.92;;;11.45;;
20729;SDS011;10526;50.850;12.928;2022-11-20T10:50:21;24.70;;;11.57;;
20729;SDS011;10526;50.850;12.928;2022-11-20T11:03:49;22.90;;;11.20;;
20729;SDS011;10526;50.850;12.928;2022-11-20T11:08:17;21.83;;;11.25;;
20729;SDS011;10526;50.850;12.928;2022-11-20T11:12:43;23.35;;;12.15;;
20729;SDS011;10526;50.850;12.928;2022-11-20T11:17:17;21.55;;;10.10;;
20729;SDS011;10526;50.850;12.928;2022-11-20T11:21:56;23.90;;;10.98;;
20729;SDS011;10526;50.850;12.928;2022-11-20T11:26:19;23.20;;;10.15;;
20729;SDS011;10526;50.850;12.928;2022-11-20T11:30:44;19.05;;;10.07;;
20729;SDS011;10526;50.850;12.928;2022-11-20T11:35:18;22.48;;;11.50;;
20729;SDS011;10526;50.850;12.928;2022-11-20T11:39:48;23.20;;;11.40;;
20729;SDS011;10526;50.850;12.928;2022-11-20T11:44:31;24.50;;;11.27;;
20729;SDS011;10526;50.850;12.928;2022-11-20T11:49:15;24.42;;;11.27;;
20729;SDS011;10526;50.850;12.928;2022-11-20T11:53:40;21.90;;;10.68;;
20729;SDS011;10526;50.850;12.928;2022-11-20T11:58:09;22.80;;;11.73;;
20729;SDS011;10526;50.850;12.928;2022-11-20T12:03:08;32.40;;;16.95;;
20729;SDS011;10526;50.850;12.928;2022-11-20T12:08:21;21.63;;;11.23;;
20729;SDS011;10526;50.850;12.928;2022-11-20T12:18:07;23.35;;;11.77;;
20729;SDS011;10526;50.850;12.928;2022-11-20T12:22:38;22.02;;;10.95;;
20729;SDS011;10526;50.850;12.928;2022-11-20T12:36:41;20.83;;;11.10;;
20729;SDS011;10526;50.850;12.928;2022-11-20T13:00:31;24.13;;;12.57;;
20729;SDS011;10526;50.850;12.928;2022-11-20T13:09:30;26.00;;;12.07;;
20729;SDS011;10526;50.850;12.928;2022-11-20T13:18:39;28.30;;;13.85;;
20729;SDS011;10526;50.850;12.928;2022-11-20T13:23:06;26.40;;;14.10;;
20729;SDS011;10526;50.850;12.928;2022-11-20T13:27:28;33.22;;;14.65;;
20729;SDS011;10526;50.850;12.928;2022-11-20T13:32:00;28.42;;;14.48;;
20729;SDS011;10526;50.850;12.928;2022-11-20T13:36:50;32.15;;;14.55;;
20729;SDS011;10526;50.850;12.928;2022-11-20T13:46:03;29.88;;;16.40;;
20729;SDS011;10526;50.850;12.928;2022-11-20T13:55:28;24.65;;;11.80;;
20729;SDS011;10526;50.850;12.928;2022-11-20T14:00:23;25.83;;;12.43;;
20729;SDS011;10526;50.850;12.928;2022-11-20T14:04:47;23.35;;;11.57;;
20729;SDS011;10526;50.850;12.928;2022-11-20T14:09:24;22.23;;;10.95;;
20729;SDS011;10526;50.850;12.928;2022-11-20T14:13:54;22.25;;;10.93;;
20729;SDS011;10526;50.850;12.928;2022-11-20T14:18:43;20.83;;;10.75;;
20729;SDS011;10526;50.850;12.928;2022-11-20T14:23:07;23.17;;;11.88;;
20729;SDS011;10526;50.850;12.928;2022-11-20T14:27:38;24.95;;;12.18;;
20729;SDS011;10526;50.850;12.928;2022-11-20T14:32:02;24.55;;;12.60;;
20729;SDS011;10526;50.850;12.928;2022-11-20T14:36:25;26.85;;;13.52;;
20729;SDS011;10526;50.850;12.928;2022-11-20T14:40:48;25.15;;;13.02;;
20729;SDS011;10526;50.850;12.928;2022-11-20T14:45:11;26.23;;;13.63;;
20729;SDS011;10526;50.850;12.928;2022-11-20T14:49:33;27.92;;;14.25;;
20729;SDS011;10526;50.850;12.928;2022-11-20T14:54:07;26.30;;;13.60;;
20729;SDS011;10526;50.850;12.928;2022-11-20T14:58:33;27.67;;;13.93;;
20729;SDS011;10526;50.850;12.928;2022-11-20T15:02:55;26.73;;;13.68;;
20729;SDS011;10526;50.850;12.928;2022-11-20T15:07:29;28.67;;;14.93;;
20729;SDS011;10526;50.850;12.928;2022-11-20T15:12:15;29.48;;;14.73;;
20729;SDS011;10526;50.850;12.928;2022-11-20T15:16:39;29.83;;;14.88;;
20729;SDS011;10526;50.850;12.928;2022-11-20T15:21:02;32.70;;;16.45;;
20729;SDS011;10526;50.850;12.928;2022-11-20T15:25:31;32.05;;;15.18;;
20729;SDS011;10526;50.850;12.928;2022-11-20T15:29:53;28.63;;;14.75;;
20729;SDS011;10526;50.850;12.928;2022-11-20T15:34:15;31.40;;;15.40;;
20729;SDS011;10526;50.850;12.928;2022-11-20T15:38:37;36.70;;;16.80;;
20729;SDS011;10526;50.850;12.928;2022-11-20T15:42:59;32.47;;;15.90;;
20729;SDS011;10526;50.850;12.928;2022-11-20T15:47:33;27.95;;;14.52;;
20729;SDS011;10526;50.850;12.928;2022-11-20T15:51:56;32.90;;;15.32;;
20729;SDS011;10526;50.850;12.928;2022-11-20T15:56:18;31.77;;;15.38;;
20729;SDS011;10526;50.850;12.928;2022-11-20T16:00:40;29.42;;;14.57;;
20729;SDS011;10526;50.850;12.928;2022-11-20T16:05:03;47.65;;;25.10;;
20729;SDS011;10526;50.850;12.928;2022-11-20T16:09:30;29.15;;;14.77;;
20729;SDS011;10526;50.850;12.928;2022-11-20T16:13:52;31.63;;;15.55;;
20729;SDS011;10526;50.850;12.928;2022-11-20T16:18:33;32.13;;;15.77;;
20729;SDS011;10526;50.850;12.928;2022-11-20T16:22:55;33.13;;;17.95;;
20729;SDS011;10526;50.850;12.928;2022-11-20T16:27:17;32.17;;;16.40;;
20729;SDS011;10526;50.850;12.928;2022-11-20T16:31:39;35.85;;;17.92;;
20729;SDS011;10526;50.850;12.928;2022-11-20T16:36:08;36.72;;;17.40;;
20729;SDS011;10526;50.850;12.928;2022-11-20T16:40:36;37.30;;;17.35;;
20729;SDS011;10526;50.850;12.928;2022-11-20T16:44:58;36.78;;;19.05;;
20729;SDS011;10526;50.850;12.928;2022-11-20T16:49:20;34.35;;;18.95;;
20729;SDS011;10526;50.850;12.928;2022-11-20T16:53:42;34.15;;;17.58;;
20729;SDS011;10526;50.850;12.928;2022-11-20T16:58:04;35.47;;;19.65;;
20729;SDS011;10526;50.850;12.928;2022-11-20T17:02:26;34.80;;;18.10;;
20729;SDS011;10526;50.850;12.928;2022-11-20T17:06:48;35.47;;;18.55;;
20729;SDS011;10526;50.850;12.928;2022-11-20T17:11:11;38.90;;;20.35;;
20729;SDS011;10526;50.850;12.928;2022-11-20T17:15:41;37.30;;;19.42;;
20729;SDS011;10526;50.850;12.928;2022-11-20T17:20:03;40.22;;;20.33;;
20729;SDS011;10526;50.850;12.928;2022-11-20T17:24:26;42.13;;;20.15;;
20729;SDS011;10526;50.850;12.928;2022-11-20T17:28:56;40.15;;;21.25;;
20729;SDS011;10526;50.850;12.928;2022-11-20T17:33:27;46.17;;;21.98;;
20729;SDS011;10526;50.850;12.928;2022-11-20T17:37:49;40.92;;;19.60;;
20729;SDS011;10526;50.850;12.928;2022-11-20T17:42:11;43.50;;;21.08;;
20729;SDS011;10526;50.850;12.928;2022-11-20T17:46:49;45.38;;;23.27;;
20729;SDS011;10526;50.850;12.928;2022-11-20T17:51:12;43.25;;;20.77;;
20729;SDS011;10526;50.850;12.928;2022-11-20T17:55:42;42.72;;;21.70;;
20729;SDS011;10526;50.850;12.928;2022-11-20T18:00:23;43.47;;;22.80;;
20729;SDS011;10526;50.850;12.928;2022-11-20T18:04:46;47.30;;;22.67;;
20729;SDS011;10526;50.850;12.928;2022-11-20T18:09:08;42.65;;;22.42;;
20729;SDS011;10526;50.850;12.928;2022-11-20T18:13:30;44.38;;;23.05;;
20729;SDS011;10526;50.850;12.928;2022-11-20T18:18:12;44.95;;;21.73;;
20729;SDS011;10526;50.850;12.928;2022-11-20T18:22:34;43.70;;;23.35;;
20729;SDS011;10526;50.850;12.928;2022-11-20T18:26:57;46.38;;;22.65;;
20729;SDS011;10526;50.850;12.928;2022-11-20T18:31:19;45.38;;;23.38;;
20729;SDS011;10526;50.850;12.928;2022-11-20T18:35:41;40.78;;;21.40;;
20729;SDS011;10526;50.850;12.928;2022-11-20T18:40:03;44.58;;;23.17;;
20729;SDS011;10526;50.850;12.928;2022-11-20T18:44:28;51.22;;;24.33;;
20729;SDS011;10526;50.850;12.928;2022-11-20T18:49:11;41.92;;;21.65;;
20729;SDS011;10526;50.850;12.928;2022-11-20T18:53:34;45.03;;;23.55;;
20729;SDS011;10526;50.850;12.928;2022-11-20T18:57:56;46.92;;;24.38;;
20729;SDS011;10526;50.850;12.928;2022-11-20T19:02:19;50.25;;;25.52;;
20729;SDS011;10526;50.850;12.928;2022-11-20T19:06:42;47.20;;;23.27;;
20729;SDS011;10526;50.850;12.928;2022-11-20T19:11:06;49.45;;;26.80;;
20729;SDS011;10526;50.850;12.928;2022-11-20T19:15:32;50.10;;;27.05;;
20729;SDS011;10526;50.850;12.928;2022-11-20T19:19:56;55.67;;;27.73;;
20729;SDS011;10526;50.850;12.928;2022-11-20T19:24:18;50.15;;;26.55;;
20729;SDS011;10526;50.850;12.928;2022-11-20T19:28:39;48.00;;;24.88;;
20729;SDS011;10526;50.850;12.928;2022-11-20T19:33:03;47.78;;;23.73;;
20729;SDS011;10526;50.850;12.928;2022-11-20T19:37:25;44.15;;;22.90;;
20729;SDS011;10526;50.850;12.928;2022-11-20T19:41:47;50.45;;;25.33;;
20729;SDS011;10526;50.850;12.928;2022-11-20T19:46:09;51.45;;;25.25;;
20729;SDS011;10526;50.850;12.928;2022-11-20T19:50:31;44.85;;;24.38;;
20729;SDS011;10526;50.850;12.928;2022-11-20T19:54:53;41.38;;;23.23;;
20729;SDS011;10526;50.850;12.928;2022-11-20T19:59:15;47.53;;;24.10;;
20729;SDS011;10526;50.850;12.928;2022-11-20T20:03:37;46.08;;;24.30;;
20729;SDS011;10526;50.850;12.928;2022-11-20T20:08:00;47.85;;;25.45;;
20729;SDS011;10526;50.850;12.928;2022-11-20T20:12:22;46.80;;;25.42;;
20729;SDS011;10526;50.850;12.928;2022-11-20T20:16:45;53.33;;;26.30;;
20729;SDS011;10526;50.850;12.928;2022-11-20T20:21:09;48.88;;;25.35;;
20729;SDS011;10526;50.850;12.928;2022-11-20T20:25:37;46.58;;;25.02;;
20729;SDS011;10526;50.850;12.928;2022-11-20T20:29:59;45.83;;;24.02;;
20729;SDS011;10526;50.850;12.928;2022-11-20T20:34:21;39.72;;;21.85;;
20729;SDS011;10526;50.850;12.928;2022-11-20T20:38:43;48.60;;;24.67;;
20729;SDS011;10526;50.850;12.928;2022-11-20T20:43:06;42.47;;;22.20;;
20729;SDS011;10526;50.850;12.928;2022-11-20T20:47:31;49.83;;;26.17;;
20729;SDS011;10526;50.850;12.928;2022-11-20T20:51:57;37.90;;;21.00;;
20729;SDS011;10526;50.850;12.928;2022-11-20T20:56:19;48.83;;;23.90;;
20729;SDS011;10526;50.850;12.928;2022-11-20T21:00:41;40.80;;;21.88;;
20729;SDS011;10526;50.850;12.928;2022-11-20T21:05:03;45.05;;;22.70;;
20729;SDS011;10526;50.850;12.928;2022-11-20T21:09:26;40.83;;;22.75;;
20729;SDS011;10526;50.850;12.928;2022-11-20T21:13:48;39.80;;;22.40;;
20729;SDS011;10526;50.850;12.928;2022-11-20T21:18:10;42.33;;;24.08;;
20729;SDS011;10526;50.850;12.928;2022-11-20T21:22:32;49.53;;;25.55;;
20729;SDS011;10526;50.850;12.928;2022-11-20T21:26:56;43.03;;;23.25;;
20729;SDS011;10526;50.850;12.928;2022-11-20T21:31:20;43.00;;;22.70;;
20729;SDS011;10526;50.850;12.928;2022-11-20T21:35:46;42.58;;;22.58;;
20729;SDS011;10526;50.850;12.928;2022-11-20T21:40:08;41.95;;;22.38;;
20729;SDS011;10526;50.850;12.928;2022-11-20T21:44:30;37.78;;;21.02;;
20729;SDS011;10526;50.850;12.928;2022-11-20T21:48:52;40.88;;;21.90;;
20729;SDS011;10526;50.850;12.928;2022-11-20T21:53:14;34.78;;;19.35;;
20729;SDS011;10526;50.850;12.928;2022-11-20T21:57:37;40.40;;;21.27;;
20729;SDS011;10526;50.850;12.928;2022-11-20T22:01:59;41.97;;;22.02;;
20729;SDS011;10526;50.850;12.928;2022-11-20T22:06:22;33.58;;;18.73;;
20729;SDS011;10526;50.850;12.928;2022-11-20T22:10:52;34.20;;;18.40;;
20729;SDS011;10526;50.850;12.928;2022-11-20T22:15:18;38.80;;;19.58;;
20729;SDS011;10526;50.850;12.928;2022-11-20T22:19:59;34.83;;;19.77;;
20729;SDS011;10526;50.850;12.928;2022-11-20T22:24:21;36.33;;;20.10;;
20729;SDS011;10526;50.850;12.928;2022-11-20T22:28:48;38.97;;;21.05;;
20729;SDS011;10526;50.850;12.928;2022-11-20T22:33:12;35.08;;;20.70;;
20729;SDS011;10526;50.850;12.928;2022-11-20T22:37:34;39.20;;;21.08;;
20729;SDS011;10526;50.850;12.928;2022-11-20T22:41:56;38.58;;;22.65;;
20729;SDS011;10526;50.850;12.928;2022-11-20T22:46:18;38.30;;;20.50;;
20729;SDS011;10526;50.850;12.928;2022-11-20T22:50:40;38.72;;;19.75;;
20729;SDS011;10526;50.850;12.928;2022-11-20T22:55:02;34.50;;;19.35;;
20729;SDS011;10526;50.850;12.928;2022-11-20T22:59:24;37.22;;;19.33;;
20729;SDS011;10526;50.850;12.928;2022-11-20T23:03:47;34.92;;;19.92;;
20729;SDS011;10526;50.850;12.928;2022-11-20T23:08:11;37.90;;;20.55;;
20729;SDS011;10526;50.850;12.928;2022-11-20T23:12:33;33.30;;;19.02;;
20729;SDS011;10526;50.850;12.928;2022-11-20T23:16:56;36.63;;;19.05;;
20729;SDS011;10526;50.850;12.928;2022-11-20T23:21:19;33.47;;;18.75;;
20729;SDS011;10526;50.850;12.928;2022-11-20T23:25:45;36.10;;;20.10;;
20729;SDS011;10526;50.850;12.928;2022-11-20T23:30:07;36.17;;;19.20;;
20729;SDS011;10526;50.850;12.928;2022-11-20T23:34:32;33.70;;;17.83;;
20729;SDS011;10526;50.850;12.928;2022-11-20T23:38:54;33.58;;;17.00;;
20729;SDS011;10526;50.850;12.928;2022-11-20T23:43:16;37.45;;;19.27;;
20729;SDS011;10526;50.850;12.928;2022-11-20T23:47:40;36.33;;;18.33;;
20729;SDS011;10526;50.850;12.928;2022-11-20T23:52:02;34.15;;;18.00;;
20729;SDS011;10526;50.850;12.928;2022-11-20T23:56:24;33.83;;;16.45;;
